Detall de PIREP

Printer-friendly versionPDF version

[2014/05/29 09:33:00]
Flight IATA:CT2305
Pilot Number:042
Company ICAO:CAT
Aircraft Type:F100/A
PAX:49
Aircraft Registration:PFJ
Departing Airport: LIBC
Destination Airport: LIEA
Alternate Airport:LIEO
Online: VATSIM
Route:CDC UM729 PNZ UM603 MOROB
Flight Level:F240
No Slew and time accel
No pause
Crash detect
Detect pilot in Cockpit between each 30 and 45 minutes
09:33 Zero fuel Weight: 81825 Lbs, Fuel Weight: 22691 Lbs
09:33 VATSIM:LIBC 290750Z 25006KT 9999 -RA FEW030 BKN055 14/13 Q1011
09:33 VATSIM:LIEA 290850Z 19012KT 9999 BKN025 20/17 Q1014
09:37 Parking Brakes off
09:41 Take-off
09:41 Take off Weight: 104135 Lbs
09:41 Wind: 279º @ 004 Knots Heading: 169º
09:41 POS N38º 59´ 17´´ E017º 04´ 57´´
09:41 Gear Up: 168 Knots
09:41 Flaps:2 at 168 Knots
09:41 Flaps:1 at 173 Knots
09:41 Flaps:0 at 200 Knots
09:52 TOC
09:52 Fuel Weight: 20644 Lb
09:56 Wind:279º@014Knots Heading: 309º Ground Speed: 431 Knots Altitude 23953 ft
10:11 Wind:317º@008 Knots Heading: 309º Ground Speed: 438 Knots Altitude 23953 ft
10:26 Wind:311º@027 Knots Heading: 268º Ground Speed: 426 Knots Altitude 23940 ft
10:41 Wind:268º@035 Knots Heading: 264º Ground Speed: 414 Knots Altitude 23963 ft
10:42 TOD
10:42 Fuel Weight: 15715 Lb
10:52 Flaps:1 at 213 Knots
10:53 Flaps:2 at 196 Knots
10:55 Gear Down: 179 Knots
10:55 Flaps:3 at 179 Knots
10:56 Wind:203º@012 Knots Heading: 204º Ground Speed: 167 Knots Altitude 2027 ft
10:58 TouchDown:Rate -366 ft/min Speed: 150 Knots
10:58 VATSIM:LIEA 291020Z 20012KT 170V230 9999 BKN025 21/17 Q1014
10:58 Land
10:58 Wind:205º@012 Knots
10:58 Heading: 203º
10:58 Flight Duration: 01:17
10:58 Landing Weight: 96763 Lbs
10:58 POS N40º 38´ 00´´ E008º 17´ 29´´
11:01 Parking brakes on
11:01 Block to Block Duration: 01:24
11:01 Final Fuel: 14759 Lbls
11:01 Spent Fuel: 7932 Lbls
11:01 Flight Length: 480 NM
11:01 TOD Land Length: 68 NM

Exportar CSV

Powered by Drupal - Modified by Danger4k